createdAt,value
2023-05-08T00:01:39.451Z,7.77
2023-05-08T00:04:06.674Z,8.37
2023-05-08T00:06:33.764Z,8.67
2023-05-08T00:09:00.721Z,7.03
2023-05-08T00:11:27.657Z,9.40
2023-05-08T00:13:54.560Z,8.40
2023-05-08T00:16:21.584Z,9.37
2023-05-08T00:18:48.560Z,7.80
2023-05-08T00:21:15.425Z,7.80
2023-05-08T00:23:42.340Z,6.93
2023-05-08T00:26:09.213Z,10.40
2023-05-08T00:28:36.062Z,8.03
2023-05-08T00:31:03.071Z,6.73
2023-05-08T00:33:30.068Z,8.03
2023-05-08T00:36:04.364Z,9.63
2023-05-08T00:38:36.870Z,9.83
2023-05-08T00:41:04.481Z,6.73
2023-05-08T00:43:31.422Z,7.40
2023-05-08T00:46:01.466Z,8.77
2023-05-08T00:48:31.510Z,8.83
2023-05-08T00:50:59.353Z,11.67
2023-05-08T00:53:27.327Z,8.60
2023-05-08T00:55:54.594Z,10.77
2023-05-08T00:58:22.732Z,8.97
2023-05-08T01:00:52.411Z,8.03
2023-05-08T01:03:19.440Z,8.70
2023-05-08T01:05:46.553Z,10.50
2023-05-08T01:08:13.413Z,11.80
2023-05-08T01:11:02.485Z,10.23
2023-05-08T01:13:48.212Z,9.10
2023-05-08T01:19:29.528Z,8.53
2023-05-08T01:21:59.587Z,9.57
2023-05-08T01:24:26.451Z,15.10
2023-05-08T01:27:01.959Z,10.93
2023-05-08T01:29:53.382Z,9.67
2023-05-08T01:32:27.489Z,8.70
2023-05-08T01:35:10.651Z,10.23
2023-05-08T01:37:55.935Z,10.57
2023-05-08T01:40:52.652Z,9.00
2023-05-08T01:43:29.194Z,9.40
2023-05-08T01:45:57.986Z,11.20
2023-05-08T01:48:35.225Z,11.00
2023-05-08T01:51:17.171Z,8.10
2023-05-08T01:53:49.635Z,9.63
2023-05-08T01:56:22.266Z,12.30
2023-05-08T01:58:54.427Z,9.57
2023-05-08T02:01:24.437Z,10.40
2023-05-08T02:03:53.340Z,10.50
2023-05-08T02:06:23.590Z,8.57
2023-05-08T02:08:51.865Z,10.80
2023-05-08T02:11:19.802Z,9.33
2023-05-08T02:13:48.583Z,9.33
2023-05-08T02:16:16.295Z,14.13
2023-05-08T02:18:48.572Z,9.67
2023-05-08T02:21:17.381Z,13.77
2023-05-08T02:23:45.497Z,13.03
2023-05-08T02:26:15.405Z,13.53
2023-05-08T02:28:42.921Z,8.70
2023-05-08T02:31:12.168Z,11.90
2023-05-08T02:33:42.057Z,11.20
2023-05-08T02:36:10.933Z,13.93
2023-05-08T02:38:39.871Z,8.23
2023-05-08T02:41:08.112Z,12.10
2023-05-08T02:43:35.642Z,8.63
2023-05-08T02:46:27.887Z,9.77
2023-05-08T02:49:07.307Z,9.43
2023-05-08T02:51:43.084Z,14.40
2023-05-08T02:54:45.977Z,10.37
2023-05-08T02:57:24.085Z,13.83
2023-05-08T03:00:03.833Z,8.97
2023-05-08T03:02:41.762Z,11.43
2023-05-08T03:05:17.053Z,11.40
2023-05-08T03:07:47.234Z,10.88
2023-05-08T03:10:16.711Z,11.70
2023-05-08T03:12:48.976Z,11.63
2023-05-08T03:15:25.828Z,12.80
2023-05-08T03:17:57.602Z,12.10
2023-05-08T03:20:31.138Z,11.13
2023-05-08T03:22:59.676Z,11.30
2023-05-08T03:25:28.636Z,15.30
2023-05-08T03:27:57.291Z,12.10
2023-05-08T03:30:25.298Z,11.87
2023-05-08T03:32:54.125Z,11.90
2023-05-08T03:35:22.269Z,16.60
2023-05-08T03:37:49.227Z,14.10
2023-05-08T03:40:16.169Z,59.80
2023-05-08T03:42:44.308Z,60.00
2023-05-08T03:45:12.085Z,38.70
2023-05-08T03:47:41.852Z,29.20
2023-05-08T03:50:10.000Z,17.57
2023-05-08T03:52:38.196Z,26.50
2023-05-08T03:55:06.125Z,112.50
2023-05-08T03:57:40.115Z,174.97
2023-05-08T04:00:14.680Z,99.83
2023-05-08T04:02:46.963Z,88.97
2023-05-08T04:05:19.935Z,68.63
2023-05-08T04:08:15.813Z,57.40
2023-05-08T04:10:55.446Z,52.60
2023-05-08T04:13:28.503Z,45.07
2023-05-08T04:16:06.782Z,48.57
2023-05-08T04:18:38.582Z,34.63
2023-05-08T04:21:11.012Z,24.67
2023-05-08T04:23:40.361Z,20.57
2023-05-08T04:26:09.061Z,42.30
2023-05-08T04:28:36.202Z,52.17
2023-05-08T04:31:05.000Z,42.27
2023-05-08T04:33:33.518Z,37.33
2023-05-08T04:36:02.879Z,24.17
2023-05-08T04:38:30.093Z,25.97
2023-05-08T04:40:56.990Z,19.10
2023-05-08T04:43:24.054Z,15.87
2023-05-08T04:45:51.087Z,24.33
2023-05-08T04:48:19.039Z,19.13
2023-05-08T04:50:45.926Z,19.87
2023-05-08T04:53:12.966Z,25.37
2023-05-08T04:55:39.898Z,41.37
2023-05-08T04:58:06.858Z,41.30
2023-05-08T05:00:35.296Z,48.80
2023-05-08T05:03:02.353Z,41.07
2023-05-08T05:05:29.289Z,36.37
2023-05-08T05:07:56.187Z,32.77
2023-05-08T05:10:23.114Z,39.23
2023-05-08T05:12:50.055Z,29.20
2023-05-08T05:15:16.967Z,26.13
2023-05-08T05:17:44.391Z,25.87
2023-05-08T05:20:11.845Z,24.97
2023-05-08T05:22:38.951Z,27.47
2023-05-08T05:25:06.207Z,21.67
2023-05-08T05:27:36.847Z,19.87
2023-05-08T05:30:04.266Z,19.77
2023-05-08T05:32:31.281Z,20.53
2023-05-08T05:34:58.383Z,23.37
2023-05-08T05:37:25.385Z,19.17
2023-05-08T05:39:52.326Z,17.53
2023-05-08T05:42:19.282Z,19.77
2023-05-08T05:44:46.317Z,16.53
2023-05-08T05:47:13.336Z,20.23
2023-05-08T05:49:43.093Z,23.50
2023-05-08T05:52:10.161Z,33.50
2023-05-08T05:54:37.131Z,35.53
2023-05-08T05:57:04.782Z,30.07
2023-05-08T05:59:31.715Z,30.27
2023-05-08T06:01:58.638Z,36.67
2023-05-08T06:04:26.499Z,34.30
2023-05-08T06:06:53.608Z,25.07
2023-05-08T06:09:20.686Z,27.67
2023-05-08T06:11:47.726Z,35.23
2023-05-08T06:14:14.616Z,33.33
2023-05-08T06:16:41.679Z,42.67
2023-05-08T06:19:08.619Z,43.17
2023-05-08T06:21:35.548Z,48.17
2023-05-08T06:24:02.512Z,27.27
2023-05-08T06:26:29.405Z,23.67
2023-05-08T06:28:56.898Z,31.20
2023-05-08T06:31:23.961Z,29.23
2023-05-08T06:33:51.001Z,25.47
2023-05-08T06:36:18.026Z,26.03
2023-05-08T06:38:44.983Z,31.33
2023-05-08T06:41:13.880Z,33.83
2023-05-08T06:43:42.081Z,23.30
2023-05-08T06:46:09.186Z,37.57
2023-05-08T06:48:36.170Z,29.30
2023-05-08T06:51:03.768Z,26.70
2023-05-08T06:53:31.086Z,15.03
2023-05-08T06:55:58.872Z,15.67
2023-05-08T06:58:26.001Z,24.27
2023-05-08T07:00:52.927Z,22.70
2023-05-08T07:03:19.836Z,9.67
2023-05-08T07:05:46.783Z,13.13
2023-05-08T07:08:13.814Z,15.07
2023-05-08T07:10:41.192Z,18.27
2023-05-08T07:13:08.136Z,18.60
2023-05-08T07:15:35.020Z,14.10
2023-05-08T07:18:02.058Z,9.30
2023-05-08T07:20:29.075Z,7.63
2023-05-08T07:22:56.037Z,5.53
2023-05-08T07:25:23.011Z,10.87
2023-05-08T07:27:49.909Z,12.13
2023-05-08T07:30:17.044Z,6.77
2023-05-08T07:32:44.102Z,9.03
2023-05-08T07:35:12.925Z,6.00
2023-05-08T07:37:40.134Z,8.63
2023-05-08T07:40:07.753Z,3.70
2023-05-08T07:42:42.245Z,5.33
2023-05-08T07:45:10.771Z,6.88
2023-05-08T07:47:38.970Z,8.20
2023-05-08T07:50:06.502Z,5.93
2023-05-08T07:52:33.461Z,6.93
2023-05-08T07:55:00.470Z,4.33
2023-05-08T07:57:27.426Z,6.70
2023-05-08T07:59:54.312Z,6.00
2023-05-08T08:02:21.381Z,19.97
2023-05-08T08:04:48.833Z,11.67
2023-05-08T08:07:16.237Z,12.43
2023-05-08T08:09:43.272Z,7.47
2023-05-08T08:12:10.477Z,6.07
2023-05-08T08:14:37.432Z,7.90
2023-05-08T08:17:04.437Z,5.63
2023-05-08T08:19:31.371Z,6.27
2023-05-08T08:21:58.275Z,7.13
2023-05-08T08:24:25.806Z,4.93
2023-05-08T08:26:52.694Z,6.83
2023-05-08T08:29:19.574Z,10.37
2023-05-08T08:31:46.594Z,6.30
2023-05-08T08:34:13.753Z,5.90
2023-05-08T08:36:40.708Z,6.47
2023-05-08T08:39:09.566Z,6.13
2023-05-08T08:41:42.430Z,11.13
2023-05-08T08:44:09.747Z,11.30
2023-05-08T08:46:43.926Z,8.73
2023-05-08T08:49:17.907Z,10.43
2023-05-08T08:51:52.728Z,9.77
2023-05-08T08:54:28.218Z,10.45
2023-05-08T08:56:56.629Z,10.63
2023-05-08T08:59:26.168Z,12.27
2023-05-08T09:01:56.989Z,11.20
2023-05-08T09:04:27.292Z,10.43
2023-05-08T09:06:55.398Z,8.57
2023-05-08T09:09:23.172Z,11.90
2023-05-08T09:11:51.942Z,12.73
2023-05-08T09:14:19.122Z,9.93
2023-05-08T09:16:46.199Z,11.47
2023-05-08T09:19:16.128Z,8.27
2023-05-08T09:21:43.216Z,12.90
2023-05-08T09:24:10.148Z,8.23
2023-05-08T09:26:41.791Z,10.83
2023-05-08T09:29:11.571Z,7.97
2023-05-08T09:31:40.608Z,9.73
2023-05-08T09:34:12.694Z,11.03
2023-05-08T09:36:42.318Z,5.43
2023-05-08T09:39:12.897Z,9.03
2023-05-08T09:41:41.190Z,6.60
2023-05-08T09:44:08.115Z,8.63
2023-05-08T09:46:35.205Z,6.60
2023-05-08T09:49:03.642Z,6.70
2023-05-08T09:51:32.146Z,9.50
2023-05-08T09:54:00.521Z,5.63
2023-05-08T09:56:38.985Z,5.20
2023-05-08T09:59:22.528Z,9.67
2023-05-08T10:01:49.451Z,6.07
2023-05-08T10:04:16.313Z,4.73
2023-05-08T10:06:43.425Z,8.23
2023-05-08T10:09:16.595Z,6.10
2023-05-08T10:11:55.529Z,5.57
2023-05-08T10:14:23.702Z,8.87
2023-05-08T10:16:54.785Z,8.50
2023-05-08T10:19:24.441Z,7.00
2023-05-08T10:21:53.642Z,7.23
2023-05-08T10:24:26.390Z,10.03
2023-05-08T10:27:05.700Z,6.30
2023-05-08T10:29:52.756Z,8.57
2023-05-08T10:34:52.850Z,4.80
2023-05-08T10:37:20.319Z,7.50
2023-05-08T10:39:49.216Z,9.33
2023-05-08T10:42:16.381Z,5.43
2023-05-08T10:44:43.637Z,7.90
2023-05-08T10:47:22.591Z,7.80
2023-05-08T10:50:04.429Z,5.37
2023-05-08T10:53:07.157Z,8.10
2023-05-08T10:55:37.493Z,9.07
2023-05-08T10:58:11.715Z,7.63
2023-05-08T11:00:53.732Z,6.65
2023-05-08T11:03:31.290Z,7.00
2023-05-08T11:06:01.014Z,8.73
2023-05-08T11:08:29.997Z,5.57
2023-05-08T11:10:59.847Z,8.10
2023-05-08T11:13:31.480Z,13.77
2023-05-08T11:15:58.622Z,7.53
2023-05-08T11:18:28.088Z,10.47
2023-05-08T11:21:06.127Z,4.70
2023-05-08T11:23:34.724Z,6.93
2023-05-08T11:26:06.604Z,6.43
2023-05-08T11:28:38.271Z,6.47
2023-05-08T11:31:07.066Z,7.90
2023-05-08T11:33:39.057Z,6.73
2023-05-08T11:36:22.887Z,6.90
2023-05-08T11:39:12.798Z,6.80
2023-05-08T11:41:39.768Z,5.83
2023-05-08T11:44:17.634Z,5.50
2023-05-08T11:46:51.689Z,5.73
2023-05-08T11:49:24.695Z,5.10
2023-05-08T11:51:58.177Z,6.90
2023-05-08T11:54:26.335Z,5.60
2023-05-08T11:56:57.546Z,5.77
2023-05-08T11:59:24.553Z,7.57
2023-05-08T12:04:22.073Z,5.37
2023-05-08T12:06:51.461Z,5.13
2023-05-08T12:09:20.573Z,6.67
2023-05-08T12:11:47.651Z,7.17
2023-05-08T12:14:18.942Z,7.33
2023-05-08T12:16:45.862Z,4.57
2023-05-08T12:19:14.006Z,6.40
2023-05-08T12:21:49.942Z,6.17
2023-05-08T12:24:23.537Z,8.10
2023-05-08T12:26:55.411Z,6.07
2023-05-08T12:29:23.185Z,6.93
2023-05-08T12:31:50.358Z,6.77
2023-05-08T12:34:17.507Z,6.07
2023-05-08T12:36:44.476Z,5.40
2023-05-08T12:39:18.881Z,4.50
2023-05-08T12:41:52.974Z,9.65
2023-05-08T12:44:22.275Z,7.77
2023-05-08T12:46:57.186Z,6.77
2023-05-08T12:49:29.201Z,5.30
2023-05-08T12:52:09.767Z,6.73
2023-05-08T12:54:38.429Z,7.27
2023-05-08T12:57:16.309Z,5.90
2023-05-08T12:59:44.827Z,5.27
2023-05-08T13:02:23.960Z,5.80
2023-05-08T13:04:56.186Z,7.10
2023-05-08T13:07:23.381Z,7.73
2023-05-08T13:10:04.971Z,5.97
2023-05-08T13:12:32.248Z,6.73
2023-05-08T13:14:59.219Z,5.83
2023-05-08T13:17:26.112Z,4.90
2023-05-08T13:19:53.070Z,5.37
2023-05-08T13:22:23.190Z,5.20
2023-05-08T13:24:50.183Z,9.70
2023-05-08T13:27:17.227Z,13.03
2023-05-08T13:29:44.105Z,5.90
2023-05-08T13:32:11.082Z,7.03
2023-05-08T13:34:44.259Z,9.23
2023-05-08T13:37:16.976Z,8.90
2023-05-08T13:39:43.873Z,5.37
2023-05-08T13:42:10.732Z,6.27
2023-05-08T13:44:37.661Z,7.27
2023-05-08T13:47:04.582Z,5.83
2023-05-08T13:49:31.455Z,4.47
2023-05-08T13:51:58.353Z,6.50
2023-05-08T13:54:25.294Z,4.70
2023-05-08T13:56:54.025Z,8.90
2023-05-08T13:59:20.975Z,6.97
2023-05-08T14:01:47.891Z,6.10
2023-05-08T14:04:14.852Z,5.37
2023-05-08T14:06:41.812Z,6.77
2023-05-08T14:09:09.017Z,5.53
2023-05-08T14:11:35.998Z,9.27
2023-05-08T14:14:02.971Z,9.87
2023-05-08T14:16:30.005Z,5.97
2023-05-08T14:18:56.983Z,4.80
2023-05-08T14:21:24.214Z,5.10
2023-05-08T14:23:51.186Z,6.30
2023-05-08T14:26:18.136Z,4.97
2023-05-08T14:28:45.043Z,4.53
2023-05-08T14:31:12.061Z,5.80
2023-05-08T14:33:39.047Z,9.83
2023-05-08T14:36:06.218Z,6.87
2023-05-08T14:38:33.212Z,6.33
2023-05-08T14:41:03.085Z,7.80
2023-05-08T14:43:31.318Z,6.33
2023-05-08T14:45:58.526Z,7.00
2023-05-08T14:48:25.532Z,4.47
2023-05-08T14:50:52.420Z,5.40
2023-05-08T14:53:19.441Z,3.87
2023-05-08T14:55:46.476Z,5.60
2023-05-08T14:58:13.786Z,5.47
2023-05-08T15:00:41.011Z,5.73
2023-05-08T15:03:08.030Z,6.77
2023-05-08T15:05:34.942Z,6.10
2023-05-08T15:08:02.836Z,9.43
2023-05-08T15:10:29.776Z,4.37
2023-05-08T15:12:56.844Z,8.33
2023-05-08T15:15:23.857Z,5.90
2023-05-08T15:17:50.820Z,4.70
2023-05-08T15:20:17.783Z,5.87
2023-05-08T15:22:44.825Z,6.77
2023-05-08T15:25:12.217Z,9.03
2023-05-08T15:27:39.343Z,7.10
2023-05-08T15:30:07.045Z,4.33
2023-05-08T15:32:34.998Z,5.97
2023-05-08T15:35:02.026Z,5.53
2023-05-08T15:37:28.940Z,5.27
2023-05-08T15:39:56.604Z,3.87
2023-05-08T15:42:23.501Z,6.83
2023-05-08T15:47:22.703Z,3.47
2023-05-08T15:49:49.928Z,14.00
2023-05-08T15:52:18.840Z,5.83
2023-05-08T15:54:48.724Z,5.97
2023-05-08T15:57:16.010Z,5.43
2023-05-08T15:59:43.472Z,5.80
2023-05-08T16:02:10.435Z,4.07
2023-05-08T16:04:37.391Z,5.00
2023-05-08T16:07:04.621Z,5.07
2023-05-08T16:09:31.509Z,5.80
2023-05-08T16:11:58.709Z,7.33
2023-05-08T16:14:25.662Z,4.80
2023-05-08T16:16:52.536Z,5.23
2023-05-08T16:19:19.419Z,7.17
2023-05-08T16:21:47.869Z,4.30
2023-05-08T16:24:14.895Z,4.63
2023-05-08T16:26:41.781Z,5.93
2023-05-08T16:29:08.777Z,5.43
2023-05-08T16:31:35.827Z,4.60
2023-05-08T16:34:02.934Z,6.13
2023-05-08T16:36:29.881Z,5.17
2023-05-08T16:38:56.881Z,3.83
2023-05-08T16:41:24.038Z,5.97
2023-05-08T16:43:50.920Z,4.07
2023-05-08T16:46:26.691Z,4.70
2023-05-08T16:48:56.688Z,5.40
2023-05-08T16:51:23.585Z,4.60
2023-05-08T16:53:50.435Z,5.27
2023-05-08T16:56:17.349Z,5.57
2023-05-08T16:58:44.270Z,4.67
2023-05-08T17:01:11.786Z,7.07
2023-05-08T17:03:38.839Z,5.47
2023-05-08T17:06:07.780Z,3.63
2023-05-08T17:08:34.854Z,5.67
2023-05-08T17:11:01.858Z,5.87
2023-05-08T17:13:28.998Z,5.17
2023-05-08T17:15:56.360Z,7.07
2023-05-08T17:18:23.253Z,4.40
2023-05-08T17:20:50.803Z,3.87
2023-05-08T17:23:17.710Z,6.83
2023-05-08T17:25:44.649Z,8.00
2023-05-08T17:28:11.632Z,51.47
2023-05-08T17:30:39.700Z,14.30
2023-05-08T17:33:07.412Z,8.90
2023-05-08T17:35:34.764Z,11.70
2023-05-08T17:38:01.821Z,7.20
2023-05-08T17:40:29.034Z,3.87
2023-05-08T17:42:56.107Z,4.77
2023-05-08T17:45:23.208Z,4.90
2023-05-08T17:47:50.216Z,4.23
2023-05-08T17:50:17.243Z,7.27
2023-05-08T17:52:44.568Z,5.83
2023-05-08T17:55:11.692Z,6.03
2023-05-08T17:57:38.650Z,6.37
2023-05-08T18:00:06.449Z,5.33
2023-05-08T18:02:33.758Z,5.00
2023-05-08T18:05:01.673Z,5.27
2023-05-08T18:07:28.753Z,4.67
2023-05-08T18:09:55.962Z,4.70
2023-05-08T18:12:22.980Z,4.03
2023-05-08T18:14:49.967Z,4.50
2023-05-08T18:17:19.280Z,6.50
2023-05-08T18:19:46.656Z,6.57
2023-05-08T18:22:13.899Z,6.10
2023-05-08T18:24:41.100Z,83.57
2023-05-08T18:27:08.174Z,8.40
2023-05-08T18:29:35.056Z,7.67
2023-05-08T18:32:02.133Z,7.00
2023-05-08T18:34:29.101Z,8.53
2023-05-08T18:36:57.540Z,5.50
2023-05-08T18:39:25.184Z,6.90
2023-05-08T18:41:52.324Z,8.90
2023-05-08T18:44:19.243Z,9.33
2023-05-08T18:46:46.657Z,10.97
2023-05-08T18:49:13.969Z,6.90
2023-05-08T18:51:42.124Z,5.20
2023-05-08T18:54:09.234Z,4.73
2023-05-08T18:56:36.213Z,7.40
2023-05-08T18:59:03.699Z,5.60
2023-05-08T19:01:30.679Z,5.43
2023-05-08T19:03:57.813Z,7.90
2023-05-08T19:06:24.727Z,7.97
2023-05-08T19:08:52.323Z,7.30
2023-05-08T19:11:19.323Z,5.60
2023-05-08T19:13:46.200Z,6.77
2023-05-08T19:16:13.220Z,7.23
2023-05-08T19:18:40.368Z,7.57
2023-05-08T19:21:07.819Z,10.07
2023-05-08T19:23:34.754Z,14.10
2023-05-08T19:26:01.760Z,6.43
2023-05-08T19:28:28.864Z,8.67
2023-05-08T19:30:55.823Z,7.17
2023-05-08T19:33:23.048Z,6.20
2023-05-08T19:35:49.968Z,13.47
2023-05-08T19:38:17.121Z,6.97
2023-05-08T19:40:56.550Z,8.70
2023-05-08T19:43:25.372Z,12.73
2023-05-08T19:45:52.439Z,8.50
2023-05-08T19:48:20.361Z,11.63
2023-05-08T19:50:47.533Z,13.63
2023-05-08T19:53:14.861Z,6.07
2023-05-08T19:55:41.828Z,5.47
2023-05-08T19:58:08.774Z,8.07
2023-05-08T20:00:35.777Z,7.80
2023-05-08T20:03:03.024Z,6.67
2023-05-08T20:05:30.647Z,7.87
2023-05-08T20:07:57.555Z,8.87
2023-05-08T20:10:24.648Z,7.10
2023-05-08T20:12:51.564Z,9.03
2023-05-08T20:15:18.491Z,6.87
2023-05-08T20:17:45.421Z,7.03
2023-05-08T20:20:12.974Z,6.97
2023-05-08T20:22:40.272Z,16.93
2023-05-08T20:25:07.425Z,26.47
2023-05-08T20:27:34.378Z,33.67
2023-05-08T20:30:01.380Z,29.80
2023-05-08T20:32:28.292Z,14.53
2023-05-08T20:34:55.372Z,19.87
2023-05-08T20:37:22.321Z,13.67
2023-05-08T20:39:49.177Z,15.63
2023-05-08T20:42:16.204Z,13.03
2023-05-08T20:44:43.236Z,9.90
2023-05-08T20:47:10.298Z,11.33
2023-05-08T20:49:37.257Z,9.47
2023-05-08T20:52:05.626Z,10.87
2023-05-08T20:54:32.677Z,15.30
2023-05-08T20:56:59.656Z,9.53
2023-05-08T20:59:26.524Z,29.20
2023-05-08T21:01:53.580Z,26.07
2023-05-08T21:04:20.589Z,19.40
2023-05-08T21:06:47.459Z,21.30
2023-05-08T21:09:14.375Z,18.50
2023-05-08T21:11:41.245Z,27.40
2023-05-08T21:14:08.122Z,23.23
2023-05-08T21:16:35.021Z,25.40
2023-05-08T21:19:02.288Z,23.73
2023-05-08T21:21:29.184Z,24.53
2023-05-08T21:23:56.106Z,24.70
2023-05-08T21:26:23.830Z,19.90
2023-05-08T21:28:52.588Z,21.33
2023-05-08T21:31:20.341Z,25.07
2023-05-08T21:33:47.427Z,21.37
2023-05-08T21:36:14.417Z,22.90
2023-05-08T21:38:41.745Z,21.53
2023-05-08T21:41:08.889Z,22.27
2023-05-08T21:43:36.432Z,18.80
2023-05-08T21:46:07.526Z,21.60
2023-05-08T21:48:34.708Z,19.47
2023-05-08T21:51:02.365Z,21.17
2023-05-08T21:53:29.585Z,19.27
2023-05-08T21:55:56.438Z,17.47
2023-05-08T21:58:23.341Z,15.50
2023-05-08T22:00:50.272Z,21.27
2023-05-08T22:03:17.625Z,18.77
2023-05-08T22:05:44.625Z,21.10
2023-05-08T22:08:11.548Z,18.80
2023-05-08T22:10:38.580Z,16.57
2023-05-08T22:13:06.638Z,30.43
2023-05-08T22:15:33.831Z,21.17
2023-05-08T22:18:02.793Z,19.53
2023-05-08T22:20:29.976Z,17.60
2023-05-08T22:22:56.986Z,17.10
2023-05-08T22:25:25.246Z,18.40
2023-05-08T22:27:52.320Z,15.53
2023-05-08T22:30:19.159Z,20.57
2023-05-08T22:32:54.184Z,19.57
2023-05-08T22:35:24.382Z,17.60
2023-05-08T22:37:52.531Z,22.10
2023-05-08T22:40:20.583Z,17.87
2023-05-08T22:42:48.186Z,20.30
2023-05-08T22:45:15.660Z,19.10
2023-05-08T22:47:43.053Z,17.23
2023-05-08T22:50:11.751Z,20.17
2023-05-08T22:52:39.798Z,16.40
2023-05-08T22:55:07.834Z,17.17
2023-05-08T22:57:34.858Z,16.60
2023-05-08T23:00:02.094Z,17.40
2023-05-08T23:02:33.264Z,17.00
2023-05-08T23:05:00.714Z,16.60
2023-05-08T23:07:28.364Z,17.70
2023-05-08T23:09:55.291Z,15.80
2023-05-08T23:12:22.205Z,18.20
2023-05-08T23:14:49.105Z,14.63
2023-05-08T23:17:16.054Z,15.03
2023-05-08T23:19:43.304Z,19.57
2023-05-08T23:22:10.621Z,18.30
2023-05-08T23:24:37.799Z,17.07
2023-05-08T23:27:04.701Z,14.07
2023-05-08T23:29:31.720Z,17.63
2023-05-08T23:32:00.362Z,17.50
2023-05-08T23:34:27.399Z,13.17
2023-05-08T23:36:54.386Z,18.60
2023-05-08T23:39:21.286Z,16.60
2023-05-08T23:41:48.254Z,18.23
2023-05-08T23:44:15.806Z,13.67
2023-05-08T23:46:42.861Z,24.77
2023-05-08T23:49:09.832Z,17.77
2023-05-08T23:51:36.879Z,16.50
2023-05-08T23:54:04.599Z,17.67
2023-05-08T23:56:31.532Z,16.43
2023-05-08T23:58:58.448Z,19.17
